Time,TemperatureF,DewpointF,PressureIn,WindDirection,WindDirectionDegrees,WindSpeedMPH,WindSpeedGustMPH,Humidity,HourlyPrecipIn,Conditions,Clouds,dailyrainin,SoftwareType,DateUTC
2013-01-15 00:02:00,46.0,-99.9,30.40,West,268,1.0,1.0,-999,-99.99,,,-99.99,,2013-01-15 08:02:00,
2013-01-15 00:12:00,46.0,-99.9,30.40,WNW,282,-999.0,0.0,-999,-99.99,,,-99.99,,2013-01-15 08:12:00,
2013-01-15 00:22:00,46.0,-99.9,30.40,North,-999,-999.0,-999.0,-999,-99.99,,,-99.99,,2013-01-15 08:22:00,
2013-01-15 00:33:00,45.0,-99.9,30.40,North,-999,-999.0,-999.0,-999,-99.99,,,-99.99,,2013-01-15 08:33:00,
2013-01-15 00:43:00,45.0,-99.9,30.40,North,-999,-999.0,-999.0,-999,-99.99,,,-99.99,,2013-01-15 08:43:00,
2013-01-15 00:53:00,45.0,-99.9,30.41,WNW,282,0.0,1.0,-999,-99.99,,,-99.99,,2013-01-15 08:53:00,
2013-01-15 01:02:00,46.0,-99.9,30.41,West,262,-999.0,1.0,-999,-99.99,,,-99.99,,2013-01-15 09:02:00,
2013-01-15 01:12:00,46.0,-99.9,30.41,WSW,242,0.0,1.0,-999,-99.99,,,-99.99,,2013-01-15 09:12:00,
2013-01-15 01:22:00,46.0,-99.9,30.41,WSW,238,0.0,1.0,-999,-99.99,,,-99.99,,2013-01-15 09:22:00,
2013-01-15 01:33:00,46.0,-99.9,30.41,SW,224,-999.0,1.0,-999,-99.99,,,-99.99,,2013-01-15 09:33:00,
2013-01-15 01:43:00,45.0,-99.9,30.41,SW,224,-999.0,1.0,-999,-99.99,,,-99.99,,2013-01-15 09:43:00,
2013-01-15 01:52:00,45.0,-99.9,30.41,SW,224,-999.0,1.0,-999,-99.99,,,-99.99,,2013-01-15 09:52:00,
2013-01-15 02:02:00,46.0,-99.9,30.41,SW,217,0.0,1.0,-999,-99.99,,,-99.99,,2013-01-15 10:02:00,
2013-01-15 02:12:00,45.0,-99.9,30.42,South,172,-999.0,0.0,-999,-99.99,,,-99.99,,2013-01-15 10:12:00,
2013-01-15 02:22:00,45.0,-99.9,30.41,North,-999,-999.0,-999.0,-999,-99.99,,,-99.99,,2013-01-15 10:22:00,
2013-01-15 02:33:00,45.0,-99.9,30.42,SSE,168,1.0,1.0,-999,-99.99,,,-99.99,,2013-01-15 10:33:00,
2013-01-15 02:42:00,45.0,-99.9,30.42,SSE,162,0.0,1.0,-999,-99.99,,,-99.99,,2013-01-15 10:42:00,
2013-01-15 02:52:00,45.0,-99.9,30.42,SSE,162,-999.0,1.0,-999,-99.99,,,-99.99,,2013-01-15 10:52:00,
2013-01-15 03:03:00,45.0,-99.9,30.42,North,-999,-999.0,-999.0,-999,-99.99,,,-99.99,,2013-01-15 11:03:00,
2013-01-15 03:12:00,45.0,-99.9,30.42,North,-999,-999.0,-999.0,-999,-99.99,,,-99.99,,2013-01-15 11:12:00,
2013-01-15 03:23:00,45.0,-99.9,30.42,North,-999,-999.0,-999.0,-999,-99.99,,,-99.99,,2013-01-15 11:23:00,
2013-01-15 03:33:00,45.0,-99.9,30.42,SSE,159,-999.0,1.0,-999,-99.99,,,-99.99,,2013-01-15 11:33:00,
2013-01-15 03:43:00,46.0,-99.9,30.42,ESE,112,0.0,2.0,-999,-99.99,,,-99.99,,2013-01-15 11:43:00,
2013-01-15 03:53:00,46.0,-99.9,30.42,South,172,0.0,2.0,-999,-99.99,,,-99.99,,2013-01-15 11:53:00,
2013-01-15 04:03:00,46.0,-99.9,30.42,SSW,202,-999.0,1.0,-999,-99.99,,,-99.99,,2013-01-15 12:03:00,
2013-01-15 04:12:00,46.0,-99.9,30.43,SE,141,1.0,2.0,-999,-99.99,,,-99.99,,2013-01-15 12:12:00,
2013-01-15 04:23:00,45.0,-99.9,30.43,SE,142,1.0,2.0,-999,-99.99,,,-99.99,,2013-01-15 12:23:00,
2013-01-15 04:33:00,45.0,-99.9,30.42,SSE,167,0.0,1.0,-999,-99.99,,,-99.99,,2013-01-15 12:33:00,
2013-01-15 04:43:00,45.0,-99.9,30.42,SSW,205,-999.0,1.0,-999,-99.99,,,-99.99,,2013-01-15 12:43:00,
2013-01-15 04:53:00,46.0,-99.9,30.42,South,191,-999.0,1.0,-999,-99.99,,,-99.99,,2013-01-15 12:53:00,
2013-01-15 05:03:00,45.0,-99.9,30.42,SSE,154,0.0,1.0,-999,-99.99,,,-99.99,,2013-01-15 13:03:00,
2013-01-15 05:13:00,45.0,-99.9,30.42,SE,124,1.0,3.0,-999,-99.99,,,-99.99,,2013-01-15 13:13:00,
2013-01-15 05:23:00,45.0,-99.9,30.42,SE,135,2.0,3.0,-999,-99.99,,,-99.99,,2013-01-15 13:23:00,
2013-01-15 05:33:00,46.0,-99.9,30.42,SE,133,3.0,4.0,-999,-99.99,,,-99.99,,2013-01-15 13:33:00,
2013-01-15 05:43:00,47.0,-99.9,30.42,SE,137,4.0,5.0,-999,-99.99,,,-99.99,,2013-01-15 13:43:00,
2013-01-15 05:53:00,47.0,-99.9,30.42,SE,135,3.0,5.0,-999,-99.99,,,-99.99,,2013-01-15 13:53:00,
2013-01-15 06:03:00,47.0,-99.9,30.42,SE,133,4.0,5.0,-999,-99.99,,,-99.99,,2013-01-15 14:03:00,
2013-01-15 06:13:00,47.0,-99.9,30.42,SE,128,4.0,5.0,-999,-99.99,,,-99.99,,2013-01-15 14:13:00,
2013-01-15 06:23:00,48.0,-99.9,30.42,East,97,3.0,4.0,-999,-99.99,,,-99.99,,2013-01-15 14:23:00,
2013-01-15 06:33:00,46.0,-99.9,30.42,South,179,-999.0,1.0,-999,-99.99,,,-99.99,,2013-01-15 14:33:00,
2013-01-15 06:43:00,46.0,-99.9,30.43,South,179,-999.0,1.0,-999,-99.99,,,-99.99,,2013-01-15 14:43:00,
2013-01-15 06:54:00,46.0,-99.9,30.43,North,-999,-999.0,-999.0,-999,-99.99,,,-99.99,,2013-01-15 14:54:00,
2013-01-15 07:03:00,46.0,-99.9,30.43,North,-999,-999.0,-999.0,-999,-99.99,,,-99.99,,2013-01-15 15:03:00,
2013-01-15 07:13:00,45.0,-99.9,30.44,WSW,253,0.0,0.0,-999,-99.99,,,-99.99,,2013-01-15 15:13:00,
2013-01-15 07:23:00,45.0,-99.9,30.44,WSW,253,-999.0,0.0,-999,-99.99,,,-99.99,,2013-01-15 15:23:00,
2013-01-15 07:33:00,45.0,-99.9,30.44,North,-999,-999.0,-999.0,-999,-99.99,,,-99.99,,2013-01-15 15:33:00,
2013-01-15 07:43:00,45.0,-99.9,30.45,WSW,245,-999.0,1.0,-999,-99.99,,,-99.99,,2013-01-15 15:43:00,
2013-01-15 07:53:00,45.0,-99.9,30.45,WSW,240,0.0,1.0,-999,-99.99,,,-99.99,,2013-01-15 15:53:00,
2013-01-15 08:03:00,45.0,-99.9,30.45,WSW,237,-999.0,1.0,-999,-99.99,,,-99.99,,2013-01-15 16:03:00,
2013-01-15 08:12:00,45.0,-99.9,30.46,North,-999,-999.0,-999.0,-999,-99.99,,,-99.99,,2013-01-15 16:12:00,
2013-01-15 08:23:00,45.0,-99.9,30.46,North,-999,-999.0,-999.0,-999,-99.99,,,-99.99,,2013-01-15 16:23:00,
2013-01-15 08:33:00,46.0,-99.9,30.46,SSE,160,-999.0,1.0,-999,-99.99,,,-99.99,,2013-01-15 16:33:00,
2013-01-15 08:43:00,46.0,-99.9,30.46,East,92,2.0,4.0,-999,-99.99,,,-99.99,,2013-01-15 16:43:00,
2013-01-15 08:53:00,45.0,-99.9,30.47,ENE,61,3.0,4.0,-999,-99.99,,,-99.99,,2013-01-15 16:53:00,
2013-01-15 09:04:00,46.0,-99.9,30.47,NE,49,2.0,3.0,-999,-99.99,,,-99.99,,2013-01-15 17:04:00,
2013-01-15 09:13:00,47.0,-99.9,30.47,NE,49,1.0,2.0,-999,-99.99,,,-99.99,,2013-01-15 17:13:00,
2013-01-15 09:23:00,48.0,-99.9,30.47,NE,48,-999.0,1.0,-999,-99.99,,,-99.99,,2013-01-15 17:23:00,
2013-01-15 09:33:00,48.0,-99.9,30.48,SE,124,2.0,2.0,-999,-99.99,,,-99.99,,2013-01-15 17:33:00,
2013-01-15 09:43:00,48.0,-99.9,30.48,SSE,159,1.0,2.0,-999,-99.99,,,-99.99,,2013-01-15 17:43:00,
2013-01-15 09:53:00,48.0,-99.9,30.48,SSE,159,0.0,1.0,-999,-99.99,,,-99.99,,2013-01-15 17:53:00,
2013-01-15 10:03:00,49.0,-99.9,30.48,North,-999,-999.0,-999.0,-999,-99.99,,,-99.99,,2013-01-15 18:03:00,
2013-01-15 10:13:00,49.0,-99.9,30.48,SSE,158,-999.0,0.0,-999,-99.99,,,-99.99,,2013-01-15 18:13:00,
2013-01-15 10:23:00,50.0,-99.9,30.48,North,-999,-999.0,-999.0,-999,-99.99,,,-99.99,,2013-01-15 18:23:00,
2013-01-15 10:34:00,51.0,-99.9,30.48,SE,127,-999.0,1.0,-999,-99.99,,,-99.99,,2013-01-15 18:34:00,
2013-01-15 10:43:00,51.0,-99.9,30.48,SE,128,-999.0,4.0,-999,-99.99,,,-99.99,,2013-01-15 18:43:00,
2013-01-15 10:54:00,51.0,-99.9,30.48,SSE,162,1.0,4.0,-999,-99.99,,,-99.99,,2013-01-15 18:54:00,
2013-01-15 11:03:00,49.0,-99.9,30.48,ESE,109,5.0,8.0,-999,-99.99,,,-99.99,,2013-01-15 19:03:00,
2013-01-15 11:13:00,49.0,-99.9,30.48,ESE,119,5.0,8.0,-999,-99.99,,,-99.99,,2013-01-15 19:13:00,
2013-01-15 11:23:00,50.0,-99.9,30.48,ESE,104,4.0,7.0,-999,-99.99,,,-99.99,,2013-01-15 19:23:00,
2013-01-15 11:33:00,51.0,-99.9,30.48,SSE,151,5.0,8.0,-999,-99.99,,,-99.99,,2013-01-15 19:33:00,
2013-01-15 11:43:00,51.0,-99.9,30.48,SE,146,5.0,9.0,-999,-99.99,,,-99.99,,2013-01-15 19:43:00,
2013-01-15 11:53:00,51.0,-99.9,30.47,SE,143,6.0,10.0,-999,-99.99,,,-99.99,,2013-01-15 19:53:00,
2013-01-15 12:04:00,51.0,-99.9,30.47,South,170,5.0,8.0,-999,-99.99,,,-99.99,,2013-01-15 20:04:00,
2013-01-15 12:12:00,51.0,-99.9,30.46,SSE,148,4.0,7.0,-999,-99.99,,,-99.99,,2013-01-15 20:12:00,
2013-01-15 12:23:00,52.0,-99.9,30.46,South,176,2.0,6.0,-999,-99.99,,,-99.99,,2013-01-15 20:23:00,
2013-01-15 12:33:00,52.0,-99.9,30.46,SW,215,3.0,6.0,-999,-99.99,,,-99.99,,2013-01-15 20:33:00,
2013-01-15 12:44:00,52.0,-99.9,30.45,South,188,3.0,6.0,-999,-99.99,,,-99.99,,2013-01-15 20:44:00,
2013-01-15 12:53:00,52.0,-99.9,30.45,SW,224,2.0,6.0,-999,-99.99,,,-99.99,,2013-01-15 20:53:00,
2013-01-15 13:03:00,53.0,-99.9,30.44,SSW,198,1.0,8.0,-999,-99.99,,,-99.99,,2013-01-15 21:03:00,
2013-01-15 13:13:00,52.0,-99.9,30.44,SSW,196,3.0,4.0,-999,-99.99,,,-99.99,,2013-01-15 21:13:00,
2013-01-15 13:23:00,52.0,-99.9,30.44,South,191,3.0,5.0,-999,-99.99,,,-99.99,,2013-01-15 21:23:00,
2013-01-15 13:34:00,51.0,-99.9,30.44,SSW,195,4.0,6.0,-999,-99.99,,,-99.99,,2013-01-15 21:34:00,
2013-01-15 13:43:00,51.0,-99.9,30.43,SSW,192,5.0,8.0,-999,-99.99,,,-99.99,,2013-01-15 21:43:00,
2013-01-15 13:53:00,51.0,-99.9,30.43,South,172,4.0,7.0,-999,-99.99,,,-99.99,,2013-01-15 21:53:00,
2013-01-15 14:03:00,51.0,-99.9,30.43,South,176,5.0,7.0,-999,-99.99,,,-99.99,,2013-01-15 22:03:00,
2013-01-15 14:12:00,51.0,-99.9,30.43,South,171,5.0,7.0,-999,-99.99,,,-99.99,,2013-01-15 22:12:00,
2013-01-15 14:23:00,51.0,-99.9,30.42,SSW,203,5.0,7.0,-999,-99.99,,,-99.99,,2013-01-15 22:23:00,
2013-01-15 14:33:00,52.0,-99.9,30.43,South,171,3.0,7.0,-999,-99.99,,,-99.99,,2013-01-15 22:33:00,
2013-01-15 14:43:00,52.0,-99.9,30.43,SSW,209,4.0,6.0,-999,-99.99,,,-99.99,,2013-01-15 22:43:00,
2013-01-15 14:53:00,52.0,-99.9,30.43,South,190,2.0,6.0,-999,-99.99,,,-99.99,,2013-01-15 22:53:00,
2013-01-15 15:03:00,52.0,-99.9,30.43,SSW,198,5.0,6.0,-999,-99.99,,,-99.99,,2013-01-15 23:03:00,
2013-01-15 15:13:00,52.0,-99.9,30.43,SSW,206,5.0,6.0,-999,-99.99,,,-99.99,,2013-01-15 23:13:00,
2013-01-15 15:23:00,52.0,-99.9,30.43,SSW,201,4.0,6.0,-999,-99.99,,,-99.99,,2013-01-15 23:23:00,
2013-01-15 15:33:00,52.0,-99.9,30.43,SSW,198,2.0,4.0,-999,-99.99,,,-99.99,,2013-01-15 23:33:00,
2013-01-15 15:43:00,52.0,-99.9,30.43,SSW,200,3.0,6.0,-999,-99.99,,,-99.99,,2013-01-15 23:43:00,
2013-01-15 15:53:00,52.0,-99.9,30.43,SSW,198,3.0,5.0,-999,-99.99,,,-99.99,,2013-01-15 23:53:00,
2013-01-15 16:03:00,52.0,-99.9,30.43,WSW,255,1.0,4.0,-999,-99.99,,,-99.99,,2013-01-16 00:03:00,
2013-01-15 16:13:00,51.0,-99.9,30.43,WSW,250,2.0,3.0,-999,-99.99,,,-99.99,,2013-01-16 00:13:00,
2013-01-15 16:23:00,51.0,-99.9,30.43,SW,227,1.0,3.0,-999,-99.99,,,-99.99,,2013-01-16 00:23:00,
2013-01-15 16:33:00,51.0,-99.9,30.43,South,191,1.0,2.0,-999,-99.99,,,-99.99,,2013-01-16 00:33:00,
2013-01-15 16:43:00,51.0,-99.9,30.43,West,261,4.0,5.0,-999,-99.99,,,-99.99,,2013-01-16 00:43:00,
2013-01-15 16:53:00,50.0,-99.9,30.43,WSW,253,4.0,5.0,-999,-99.99,,,-99.99,,2013-01-16 00:53:00,
2013-01-15 17:03:00,49.0,-99.9,30.44,WSW,256,4.0,6.0,-999,-99.99,,,-99.99,,2013-01-16 01:03:00,
2013-01-15 17:12:00,49.0,-99.9,30.44,West,267,1.0,4.0,-999,-99.99,,,-99.99,,2013-01-16 01:12:00,
2013-01-15 17:23:00,48.0,-99.9,30.44,SW,223,1.0,3.0,-999,-99.99,,,-99.99,,2013-01-16 01:23:00,
2013-01-15 17:33:00,49.0,-99.9,30.44,WSW,252,3.0,4.0,-999,-99.99,,,-99.99,,2013-01-16 01:33:00,
2013-01-15 17:43:00,49.0,-99.9,30.44,WSW,248,3.0,4.0,-999,-99.99,,,-99.99,,2013-01-16 01:43:00,
2013-01-15 17:53:00,48.0,-99.9,30.44,WSW,250,0.0,3.0,-999,-99.99,,,-99.99,,2013-01-16 01:53:00,
2013-01-15 18:03:00,47.0,-99.9,30.44,West,259,2.0,3.0,-999,-99.99,,,-99.99,,2013-01-16 02:03:00,
2013-01-15 18:12:00,47.0,-99.9,30.44,West,267,2.0,3.0,-999,-99.99,,,-99.99,,2013-01-16 02:12:00,
2013-01-15 18:23:00,47.0,-99.9,30.44,West,261,2.0,4.0,-999,-99.99,,,-99.99,,2013-01-16 02:23:00,
2013-01-15 18:33:00,47.0,-99.9,30.44,WSW,257,2.0,4.0,-999,-99.99,,,-99.99,,2013-01-16 02:33:00,
2013-01-15 18:43:00,47.0,-99.9,30.44,West,264,1.0,2.0,-999,-99.99,,,-99.99,,2013-01-16 02:43:00,
2013-01-15 18:53:00,46.0,-99.9,30.44,West,261,1.0,1.0,-999,-99.99,,,-99.99,,2013-01-16 02:53:00,
2013-01-15 19:03:00,47.0,-99.9,30.44,West,270,1.0,2.0,-999,-99.99,,,-99.99,,2013-01-16 03:03:00,
2013-01-15 19:12:00,47.0,-99.9,30.44,West,272,1.0,2.0,-999,-99.99,,,-99.99,,2013-01-16 03:12:00,
2013-01-15 19:23:00,47.0,-99.9,30.44,West,273,3.0,3.0,-999,-99.99,,,-99.99,,2013-01-16 03:23:00,
2013-01-15 19:33:00,47.0,-99.9,30.44,West,276,2.0,3.0,-999,-99.99,,,-99.99,,2013-01-16 03:33:00,
2013-01-15 19:43:00,46.0,-99.9,30.44,North,-999,-999.0,-999.0,-999,-99.99,,,-99.99,,2013-01-16 03:43:00,
2013-01-15 19:53:00,46.0,-99.9,30.44,East,87,1.0,1.0,-999,-99.99,,,-99.99,,2013-01-16 03:53:00,
2013-01-15 20:02:00,47.0,-99.9,30.44,NW,321,0.0,2.0,-999,-99.99,,,-99.99,,2013-01-16 04:02:00,
2013-01-15 20:12:00,47.0,-99.9,30.44,WNW,283,1.0,2.0,-999,-99.99,,,-99.99,,2013-01-16 04:12:00,
2013-01-15 20:22:00,47.0,-99.9,30.44,West,276,2.0,2.0,-999,-99.99,,,-99.99,,2013-01-16 04:22:00,
2013-01-15 20:33:00,46.0,-99.9,30.43,WSW,254,1.0,2.0,-999,-99.99,,,-99.99,,2013-01-16 04:33:00,
2013-01-15 20:42:00,46.0,-99.9,30.43,NNW,344,-999.0,0.0,-999,-99.99,,,-99.99,,2013-01-16 04:42:00,
2013-01-15 20:53:00,46.0,-99.9,30.43,North,-999,-999.0,-999.0,-999,-99.99,,,-99.99,,2013-01-16 04:53:00,
2013-01-15 21:03:00,46.0,-99.9,30.43,North,-999,-999.0,-999.0,-999,-99.99,,,-99.99,,2013-01-16 05:03:00,
2013-01-15 21:12:00,46.0,-99.9,30.43,West,274,1.0,2.0,-999,-99.99,,,-99.99,,2013-01-16 05:12:00,
2013-01-15 21:23:00,46.0,-99.9,30.43,WNW,284,2.0,3.0,-999,-99.99,,,-99.99,,2013-01-16 05:23:00,
2013-01-15 21:33:00,46.0,-99.9,30.42,West,274,2.0,2.0,-999,-99.99,,,-99.99,,2013-01-16 05:33:00,
2013-01-15 21:42:00,46.0,-99.9,30.43,West,274,2.0,2.0,-999,-99.99,,,-99.99,,2013-01-16 05:42:00,
2013-01-15 21:53:00,46.0,-99.9,30.43,West,280,2.0,2.0,-999,-99.99,,,-99.99,,2013-01-16 05:53:00,
2013-01-15 22:03:00,46.0,-99.9,30.43,West,278,2.0,2.0,-999,-99.99,,,-99.99,,2013-01-16 06:03:00,
2013-01-15 22:12:00,46.0,-99.9,30.43,West,278,2.0,2.0,-999,-99.99,,,-99.99,,2013-01-16 06:12:00,
2013-01-15 22:22:00,46.0,-99.9,30.43,West,278,2.0,2.0,-999,-99.99,,,-99.99,,2013-01-16 06:22:00,
2013-01-15 22:33:00,46.0,-99.9,30.43,West,275,2.0,3.0,-999,-99.99,,,-99.99,,2013-01-16 06:33:00,
2013-01-15 22:43:00,46.0,-99.9,30.43,West,273,2.0,3.0,-999,-99.99,,,-99.99,,2013-01-16 06:43:00,
2013-01-15 22:53:00,46.0,-99.9,30.42,West,274,2.0,3.0,-999,-99.99,,,-99.99,,2013-01-16 06:53:00,
2013-01-15 23:02:00,46.0,-99.9,30.42,West,272,2.0,3.0,-999,-99.99,,,-99.99,,2013-01-16 07:02:00,
2013-01-15 23:12:00,46.0,-99.9,30.43,West,274,2.0,3.0,-999,-99.99,,,-99.99,,2013-01-16 07:12:00,
2013-01-15 23:22:00,46.0,-99.9,30.43,West,278,2.0,2.0,-999,-99.99,,,-99.99,,2013-01-16 07:22:00,
2013-01-15 23:33:00,46.0,-99.9,30.43,West,272,3.0,4.0,-999,-99.99,,,-99.99,,2013-01-16 07:33:00,
2013-01-15 23:42:00,46.0,-99.9,30.43,West,274,3.0,4.0,-999,-99.99,,,-99.99,,2013-01-16 07:42:00,
2013-01-15 23:52:00,46.0,-99.9,30.43,West,280,3.0,4.0,-999,-99.99,,,-99.99,,2013-01-16 07:52:00,